createdAt,value
2019-06-10T00:01:22.687Z,6.23
2019-06-10T00:03:51.772Z,5.00
2019-06-10T00:06:21.016Z,3.70
2019-06-10T00:08:50.634Z,4.33
2019-06-10T00:11:18.029Z,4.67
2019-06-10T00:13:45.464Z,5.83
2019-06-10T00:16:12.880Z,5.07
2019-06-10T00:18:42.925Z,4.20
2019-06-10T00:21:11.202Z,5.97
2019-06-10T00:23:41.070Z,8.23
2019-06-10T00:26:09.850Z,5.87
2019-06-10T00:28:37.556Z,5.53
2019-06-10T00:31:06.928Z,5.20
2019-06-10T00:33:34.646Z,3.57
2019-06-10T00:36:05.844Z,6.43
2019-06-10T00:38:31.845Z,5.73
2019-06-10T00:41:02.312Z,4.20
2019-06-10T00:43:30.593Z,5.40
2019-06-10T00:45:58.146Z,4.90
2019-06-10T00:48:29.123Z,3.10
2019-06-10T00:50:55.375Z,5.70
2019-06-10T00:53:22.843Z,3.83
2019-06-10T00:55:51.596Z,4.63
2019-06-10T00:58:21.443Z,6.13
2019-06-10T01:00:51.442Z,7.27
2019-06-10T01:03:20.729Z,5.63
2019-06-10T01:05:47.584Z,2.73
2019-06-10T01:08:15.759Z,5.37
2019-06-10T01:10:44.114Z,5.83
2019-06-10T01:13:13.350Z,8.50
2019-06-10T01:15:41.890Z,7.70
2019-06-10T01:18:30.591Z,5.33
2019-06-10T01:20:41.302Z,6.23
2019-06-10T01:23:09.813Z,7.93
2019-06-10T01:25:37.822Z,4.27
2019-06-10T01:28:05.624Z,7.13
2019-06-10T01:30:33.154Z,6.67
2019-06-10T01:33:01.155Z,6.40
2019-06-10T01:35:30.581Z,6.70
2019-06-10T01:37:58.030Z,5.13
2019-06-10T01:40:25.603Z,5.90
2019-06-10T01:42:53.002Z,5.13
2019-06-10T01:45:21.300Z,6.07
2019-06-10T01:47:50.994Z,4.83
2019-06-10T01:50:19.499Z,5.87
2019-06-10T01:52:47.611Z,5.73
2019-06-10T01:55:16.671Z,6.10
2019-06-10T01:57:44.307Z,5.60
2019-06-10T02:00:15.566Z,6.87
2019-06-10T02:02:44.567Z,6.90
2019-06-10T02:05:12.677Z,3.70
2019-06-10T02:07:41.003Z,7.77
2019-06-10T02:10:11.818Z,5.40
2019-06-10T02:12:38.690Z,6.80
2019-06-10T02:15:06.796Z,3.20
2019-06-10T02:17:34.260Z,5.57
2019-06-10T02:20:02.160Z,5.50
2019-06-10T02:22:31.669Z,6.63
2019-06-10T02:25:01.114Z,4.27
2019-06-10T02:27:28.078Z,8.43
2019-06-10T02:29:55.509Z,5.03
2019-06-10T02:32:31.818Z,5.37
2019-06-10T02:35:03.615Z,5.80
2019-06-10T02:37:31.914Z,2.97
2019-06-10T02:39:54.255Z,5.87
2019-06-10T02:42:30.967Z,4.77
2019-06-10T02:44:59.086Z,3.57
2019-06-10T02:47:33.425Z,3.97
2019-06-10T02:50:02.416Z,5.43
2019-06-10T02:52:32.701Z,8.40
2019-06-10T02:54:55.237Z,13.70
2019-06-10T02:57:29.578Z,6.13
2019-06-10T02:59:54.337Z,5.87
2019-06-10T03:02:26.340Z,4.87
2019-06-10T03:04:53.475Z,5.33
2019-06-10T03:07:21.151Z,4.93
2019-06-10T03:09:49.318Z,5.83
2019-06-10T03:12:17.634Z,6.37
2019-06-10T03:14:45.060Z,5.87
2019-06-10T03:17:15.961Z,5.53
2019-06-10T03:19:50.195Z,4.87
2019-06-10T03:22:13.148Z,6.30
2019-06-10T03:24:42.155Z,6.00
2019-06-10T03:27:09.785Z,5.00
2019-06-10T03:29:37.123Z,10.03
2019-06-10T03:32:05.246Z,4.10
2019-06-10T03:34:40.526Z,6.33
2019-06-10T03:37:02.592Z,3.97
2019-06-10T03:39:32.131Z,6.43
2019-06-10T03:42:02.130Z,6.67
2019-06-10T03:44:29.239Z,6.93
2019-06-10T03:46:56.666Z,5.47
2019-06-10T03:49:26.746Z,4.50
2019-06-10T03:51:53.672Z,6.87
2019-06-10T03:54:24.401Z,5.93
2019-06-10T03:56:52.081Z,4.23
2019-06-10T03:59:19.606Z,4.93
2019-06-10T04:01:47.062Z,5.50
2019-06-10T04:04:14.690Z,6.97
2019-06-10T04:06:44.188Z,5.80
2019-06-10T04:09:12.144Z,6.00
2019-06-10T04:11:39.682Z,4.63
2019-06-10T04:14:07.133Z,5.20
2019-06-10T04:16:34.567Z,5.07
2019-06-10T04:19:02.701Z,14.00
2019-06-10T04:21:32.435Z,4.70
2019-06-10T04:24:02.053Z,5.90
2019-06-10T04:26:29.676Z,4.83
2019-06-10T04:28:57.154Z,5.23
2019-06-10T04:31:25.435Z,6.93
2019-06-10T04:33:53.905Z,6.67
2019-06-10T04:36:24.497Z,3.60
2019-06-10T04:38:52.551Z,5.67
2019-06-10T04:41:20.498Z,5.60
2019-06-10T04:43:49.620Z,7.50
2019-06-10T04:46:17.056Z,7.07
2019-06-10T04:48:44.517Z,8.97
2019-06-10T04:51:13.035Z,9.57
2019-06-10T04:53:43.245Z,6.50
2019-06-10T04:56:12.099Z,5.13
2019-06-10T04:58:39.046Z,6.40
2019-06-10T05:01:06.535Z,7.67
2019-06-10T05:03:34.543Z,6.67
2019-06-10T05:06:03.327Z,4.77
2019-06-10T05:08:33.674Z,6.47
2019-06-10T05:11:03.334Z,4.50
2019-06-10T05:13:30.077Z,8.57
2019-06-10T05:16:03.926Z,5.90
2019-06-10T05:18:33.300Z,4.80
2019-06-10T05:21:02.739Z,6.57
2019-06-10T05:23:33.032Z,4.20
2019-06-10T05:26:02.467Z,10.50
2019-06-10T05:28:30.313Z,3.43
2019-06-10T05:30:58.045Z,4.23
2019-06-10T05:33:26.035Z,5.50
2019-06-10T05:35:54.598Z,7.07
2019-06-10T05:38:24.009Z,3.73
2019-06-10T05:40:52.115Z,9.33
2019-06-10T05:43:21.971Z,8.23
2019-06-10T05:45:49.163Z,7.57
2019-06-10T05:48:16.927Z,6.73
2019-06-10T05:50:59.031Z,9.13
2019-06-10T05:53:13.875Z,5.13
2019-06-10T05:55:42.766Z,11.03
2019-06-10T05:58:12.790Z,6.97
2019-06-10T06:00:39.594Z,4.73
2019-06-10T06:03:07.045Z,5.27
2019-06-10T06:05:36.108Z,4.53
2019-06-10T06:08:08.316Z,4.33
2019-06-10T06:10:36.054Z,5.43
2019-06-10T06:13:03.802Z,6.17
2019-06-10T06:15:34.506Z,6.20
2019-06-10T06:18:07.245Z,7.23
2019-06-10T06:20:31.266Z,3.63
2019-06-10T06:23:02.749Z,7.40
2019-06-10T06:25:36.015Z,4.73
2019-06-10T06:27:59.592Z,7.67
2019-06-10T06:30:28.065Z,3.80
2019-06-10T06:32:56.210Z,11.40
2019-06-10T06:35:24.060Z,7.43
2019-06-10T06:37:53.959Z,6.37
2019-06-10T06:40:23.064Z,2.77
2019-06-10T06:42:52.540Z,10.73
2019-06-10T06:45:22.078Z,9.47
2019-06-10T06:47:54.946Z,4.67
2019-06-10T06:50:25.525Z,4.60
2019-06-10T06:53:18.786Z,4.60
2019-06-10T06:55:23.373Z,3.73
2019-06-10T06:57:52.868Z,6.53
2019-06-10T07:00:43.030Z,6.30
2019-06-10T07:02:55.091Z,6.67
2019-06-10T07:05:22.940Z,6.40
2019-06-10T07:07:52.742Z,6.72
2019-06-10T07:10:22.712Z,6.37
2019-06-10T07:12:52.327Z,4.50
2019-06-10T07:15:24.554Z,3.80
2019-06-10T07:17:52.649Z,3.67
2019-06-10T07:20:20.170Z,5.83
2019-06-10T07:22:47.634Z,5.50
2019-06-10T07:25:15.096Z,4.70
2019-06-10T07:27:45.203Z,4.40
2019-06-10T07:30:15.022Z,7.10
2019-06-10T07:32:46.555Z,7.77
2019-06-10T07:35:12.977Z,6.13
2019-06-10T07:37:41.795Z,6.93
2019-06-10T07:40:10.084Z,9.73
2019-06-10T07:42:37.550Z,6.28
2019-06-10T07:45:05.336Z,4.83
2019-06-10T07:47:34.181Z,5.37
2019-06-10T07:50:03.050Z,6.45
2019-06-10T07:52:32.800Z,7.80
2019-06-10T07:55:02.370Z,7.00
2019-06-10T07:57:32.786Z,3.30
2019-06-10T08:00:05.935Z,6.08
2019-06-10T08:02:34.092Z,4.30
2019-06-10T08:05:03.734Z,4.28
2019-06-10T08:07:33.267Z,4.78
2019-06-10T08:10:02.858Z,6.40
2019-06-10T08:12:32.410Z,6.93
2019-06-10T08:14:59.435Z,5.10
2019-06-10T08:17:26.848Z,6.03
2019-06-10T08:19:58.510Z,6.87
2019-06-10T08:22:33.424Z,3.87
2019-06-10T08:24:55.365Z,4.13
2019-06-10T08:27:23.611Z,5.77
2019-06-10T08:30:13.539Z,8.98
2019-06-10T08:32:20.666Z,5.30
2019-06-10T08:34:48.538Z,4.43
2019-06-10T08:37:16.514Z,7.30
2019-06-10T08:39:45.678Z,5.00
2019-06-10T08:42:14.961Z,7.95
2019-06-10T08:44:44.003Z,3.87
2019-06-10T08:47:12.440Z,4.62
2019-06-10T08:49:42.480Z,7.45
2019-06-10T08:52:09.223Z,7.08
2019-06-10T08:54:38.563Z,5.62
2019-06-10T08:57:06.058Z,8.70
2019-06-10T08:59:33.487Z,10.20
2019-06-10T09:02:02.942Z,7.93
2019-06-10T09:04:33.108Z,9.53
2019-06-10T09:07:03.886Z,7.20
2019-06-10T09:09:33.069Z,9.33
2019-06-10T09:12:03.440Z,5.50
2019-06-10T09:14:32.640Z,6.17
2019-06-10T09:17:03.221Z,10.03
2019-06-10T09:19:29.307Z,10.23
2019-06-10T09:21:56.842Z,7.90
2019-06-10T09:24:29.132Z,7.85
2019-06-10T09:26:56.651Z,6.97
2019-06-10T09:29:24.412Z,7.35
2019-06-10T09:31:58.494Z,7.63
2019-06-10T09:34:33.105Z,7.17
2019-06-10T09:37:03.065Z,7.00
2019-06-10T09:39:34.237Z,10.63
2019-06-10T09:42:06.196Z,9.27
2019-06-10T09:44:33.395Z,6.93
2019-06-10T09:47:03.532Z,9.43
2019-06-10T09:49:34.701Z,8.97
2019-06-10T09:52:03.313Z,10.50
2019-06-10T09:54:33.364Z,11.08
2019-06-10T09:57:02.487Z,7.77
2019-06-10T09:59:32.254Z,9.07
2019-06-10T10:02:02.858Z,7.15
2019-06-10T10:04:32.732Z,6.50
2019-06-10T10:06:59.936Z,8.13
2019-06-10T10:09:29.186Z,8.87
2019-06-10T10:11:56.899Z,8.53
2019-06-10T10:14:26.895Z,8.68
2019-06-10T10:16:59.792Z,7.10
2019-06-10T10:19:25.566Z,10.60
2019-06-10T10:21:58.482Z,9.10
2019-06-10T10:24:25.215Z,7.33
2019-06-10T10:26:57.297Z,12.43
2019-06-10T10:29:22.879Z,8.87
2019-06-10T10:31:52.720Z,7.27
2019-06-10T10:34:19.901Z,8.00
2019-06-10T10:36:48.724Z,9.67
2019-06-10T10:39:20.472Z,8.60
2019-06-10T10:41:48.304Z,6.92
2019-06-10T10:44:16.287Z,11.03
2019-06-10T10:46:47.539Z,9.00
2019-06-10T10:49:18.016Z,9.10
2019-06-10T10:51:45.440Z,7.43
2019-06-10T10:54:28.481Z,5.63
2019-06-10T10:56:44.613Z,7.90
2019-06-10T10:59:13.382Z,7.67
2019-06-10T11:01:42.754Z,8.23
2019-06-10T11:04:13.023Z,8.70
2019-06-10T11:06:39.548Z,11.88
2019-06-10T11:09:08.814Z,11.03
2019-06-10T11:11:38.822Z,11.00
2019-06-10T11:14:06.272Z,9.73
2019-06-10T11:16:33.757Z,13.35
2019-06-10T11:19:02.528Z,9.08
2019-06-10T11:21:30.396Z,7.97
2019-06-10T11:24:04.788Z,11.30
2019-06-10T11:26:33.003Z,11.45
2019-06-10T11:29:02.998Z,10.15
2019-06-10T11:31:32.830Z,7.58
2019-06-10T11:34:02.978Z,8.95
2019-06-10T11:36:29.867Z,8.45
2019-06-10T11:39:02.808Z,6.53
2019-06-10T11:41:32.452Z,10.68
2019-06-10T11:44:01.763Z,9.20
2019-06-10T11:46:29.132Z,7.70
2019-06-10T11:48:58.896Z,9.80
2019-06-10T11:51:26.232Z,7.78
2019-06-10T11:53:57.655Z,12.18
2019-06-10T11:56:26.135Z,8.55
2019-06-10T11:58:58.312Z,7.60
2019-06-10T12:01:46.011Z,7.58
2019-06-10T12:04:13.458Z,8.85
2019-06-10T12:06:42.618Z,7.50
2019-06-10T12:09:10.488Z,9.03
2019-06-10T12:11:38.163Z,9.43
2019-06-10T12:14:06.643Z,9.08
2019-06-10T12:19:03.986Z,7.35
2019-06-10T12:21:33.074Z,10.05
2019-06-10T12:24:02.642Z,8.78
2019-06-10T12:26:32.818Z,9.98
2019-06-10T12:29:01.701Z,8.83
2019-06-10T12:31:29.118Z,8.73
2019-06-10T12:33:57.648Z,6.83
2019-06-10T12:36:26.076Z,6.40
2019-06-10T12:38:59.746Z,9.58
2019-06-10T12:41:23.368Z,9.73
2019-06-10T12:43:54.778Z,7.80
2019-06-10T12:46:23.176Z,12.78
2019-06-10T12:48:53.984Z,12.90
2019-06-10T12:51:22.557Z,10.70
2019-06-10T12:53:49.738Z,9.80
2019-06-10T12:56:19.467Z,10.45
2019-06-10T12:58:47.145Z,9.30
2019-06-10T13:01:14.983Z,8.00
2019-06-10T13:03:43.603Z,8.05
2019-06-10T13:06:13.131Z,7.83
2019-06-10T13:08:45.087Z,11.48
2019-06-10T13:11:15.055Z,9.98
2019-06-10T13:13:42.733Z,8.65
2019-06-10T13:16:14.250Z,8.08
2019-06-10T13:18:43.685Z,8.93
2019-06-10T13:21:16.519Z,8.13
2019-06-10T13:23:42.898Z,9.40
2019-06-10T13:26:15.278Z,9.23
2019-06-10T13:28:39.473Z,8.60
2019-06-10T13:31:09.841Z,7.40
2019-06-10T13:33:36.352Z,10.03
2019-06-10T13:36:05.483Z,7.40
2019-06-10T13:38:33.647Z,9.15
2019-06-10T13:41:02.381Z,8.65
2019-06-10T13:43:33.050Z,12.63
2019-06-10T13:46:00.008Z,14.07
2019-06-10T13:48:28.826Z,12.15
2019-06-10T13:50:56.496Z,11.68
2019-06-10T13:53:23.975Z,12.88
2019-06-10T13:56:02.594Z,13.68
2019-06-10T13:58:22.987Z,9.78
2019-06-10T14:00:53.305Z,11.20
2019-06-10T14:03:19.441Z,14.85
2019-06-10T14:05:46.879Z,13.80
2019-06-10T14:08:15.319Z,8.53
2019-06-10T14:10:43.211Z,10.63
2019-06-10T14:13:15.210Z,11.97
2019-06-10T14:15:42.460Z,13.72
2019-06-10T14:18:10.660Z,13.18
2019-06-10T14:20:39.237Z,8.75
2019-06-10T14:23:08.033Z,9.13
2019-06-10T14:25:35.514Z,12.33
2019-06-10T14:28:07.322Z,12.45
2019-06-10T14:30:33.091Z,12.95
2019-06-10T14:33:02.849Z,9.75
2019-06-10T14:35:30.149Z,8.90
2019-06-10T14:37:57.695Z,11.55
2019-06-10T14:40:25.513Z,16.50
2019-06-10T14:42:53.999Z,9.00
2019-06-10T14:45:23.153Z,9.43
2019-06-10T14:47:50.703Z,8.28
2019-06-10T14:50:19.146Z,13.72
2019-06-10T14:52:46.622Z,11.83
2019-06-10T14:55:16.961Z,9.08
2019-06-10T14:57:43.680Z,7.78
2019-06-10T15:00:15.636Z,8.05
2019-06-10T15:02:42.931Z,7.55
2019-06-10T15:05:11.233Z,9.43
2019-06-10T15:07:42.312Z,6.55
2019-06-10T15:10:15.920Z,6.53
2019-06-10T15:12:43.371Z,7.00
2019-06-10T15:15:12.132Z,9.28
2019-06-10T15:17:39.593Z,5.58
2019-06-10T15:20:07.519Z,5.65
2019-06-10T15:22:35.493Z,5.75
2019-06-10T15:25:03.399Z,6.15
2019-06-10T15:27:33.900Z,6.55
2019-06-10T15:30:04.414Z,5.17
2019-06-10T15:32:34.984Z,5.37
2019-06-10T15:35:03.381Z,2.98
2019-06-10T15:37:33.028Z,3.92
2019-06-10T15:40:00.344Z,3.10
2019-06-10T15:42:29.530Z,3.12
2019-06-10T15:44:57.191Z,3.70
2019-06-10T15:47:26.246Z,5.03
2019-06-10T15:49:53.938Z,3.90
2019-06-10T15:52:24.783Z,5.40
2019-06-10T15:54:52.563Z,5.33
2019-06-10T15:57:36.731Z,4.00
2019-06-10T15:59:52.032Z,5.22
2019-06-10T16:02:20.679Z,6.83
2019-06-10T16:04:52.707Z,4.42
2019-06-10T16:07:20.943Z,5.62
2019-06-10T16:09:53.383Z,5.92
2019-06-10T16:12:24.875Z,6.60
2019-06-10T16:14:50.147Z,4.85
2019-06-10T16:17:18.999Z,5.33
2019-06-10T16:19:46.576Z,3.33
2019-06-10T16:22:15.680Z,6.00
2019-06-10T16:24:46.318Z,7.73
2019-06-10T16:27:14.195Z,8.13
2019-06-10T16:29:42.402Z,3.52
2019-06-10T16:32:09.939Z,4.97
2019-06-10T16:34:37.414Z,3.17
2019-06-10T16:37:05.299Z,3.77
2019-06-10T16:39:32.757Z,4.87
2019-06-10T16:42:02.822Z,5.83
2019-06-10T16:44:29.857Z,2.67
2019-06-10T16:46:57.381Z,4.17
2019-06-10T16:49:26.046Z,5.93
2019-06-10T16:51:53.759Z,4.97
2019-06-10T16:54:23.577Z,6.23
2019-06-10T16:56:52.269Z,6.63
2019-06-10T16:59:20.075Z,4.10
2019-06-10T17:01:47.432Z,4.70
2019-06-10T17:04:14.884Z,7.37
2019-06-10T17:06:42.408Z,11.87
2019-06-10T17:09:09.869Z,8.13
2019-06-10T17:11:37.393Z,5.80
2019-06-10T17:14:05.445Z,8.00
2019-06-10T17:16:33.465Z,9.20
2019-06-10T17:19:02.397Z,5.30
2019-06-10T17:21:33.959Z,9.07
2019-06-10T17:23:59.203Z,8.93
2019-06-10T17:26:30.615Z,13.73
2019-06-10T17:28:56.447Z,8.70
2019-06-10T17:31:26.873Z,10.50
2019-06-10T17:33:53.284Z,9.50
2019-06-10T17:36:24.798Z,10.90
2019-06-10T17:38:53.069Z,16.67
2019-06-10T17:41:21.344Z,11.63
2019-06-10T17:43:52.043Z,9.33
2019-06-10T17:46:25.036Z,15.47
2019-06-10T17:48:52.178Z,11.33
2019-06-10T17:51:26.501Z,13.17
2019-06-10T17:53:54.289Z,11.63
2019-06-10T17:56:23.103Z,13.47
2019-06-10T17:58:57.467Z,10.97
2019-06-10T18:01:22.508Z,11.60
2019-06-10T18:03:50.319Z,11.80
2019-06-10T18:06:18.035Z,11.40
2019-06-10T18:08:45.532Z,11.43
2019-06-10T18:11:13.404Z,11.13
2019-06-10T18:13:42.865Z,11.97
2019-06-10T18:16:10.135Z,9.87
2019-06-10T18:18:38.578Z,9.63
2019-06-10T18:21:05.980Z,10.73
2019-06-10T18:23:33.430Z,11.73
2019-06-10T18:26:02.972Z,12.53
2019-06-10T18:28:31.461Z,16.73
2019-06-10T18:30:59.736Z,15.97
2019-06-10T18:33:27.676Z,11.60
2019-06-10T18:35:55.463Z,12.30
2019-06-10T18:38:23.093Z,14.83
2019-06-10T18:40:53.375Z,11.80
2019-06-10T18:43:20.031Z,11.30
2019-06-10T18:45:48.130Z,12.50
2019-06-10T18:48:15.613Z,11.77
2019-06-10T18:50:43.248Z,10.93
2019-06-10T18:53:12.969Z,11.60
2019-06-10T18:55:43.008Z,13.50
2019-06-10T18:58:09.725Z,11.37
2019-06-10T19:00:54.512Z,9.97
2019-06-10T19:03:12.571Z,14.93
2019-06-10T19:05:36.657Z,12.30
2019-06-10T19:08:05.199Z,12.53
2019-06-10T19:10:35.268Z,11.03
2019-06-10T19:13:02.591Z,11.37
2019-06-10T19:15:31.675Z,10.23
2019-06-10T19:17:59.291Z,11.10
2019-06-10T19:20:26.802Z,7.70
2019-06-10T19:22:55.299Z,8.47
2019-06-10T19:25:22.762Z,7.90
2019-06-10T19:27:53.048Z,8.33
2019-06-10T19:30:23.130Z,9.23
2019-06-10T19:32:52.691Z,7.63
2019-06-10T19:35:22.368Z,8.67
2019-06-10T19:37:50.249Z,7.53
2019-06-10T19:40:17.841Z,6.90
2019-06-10T19:42:45.608Z,6.03
2019-06-10T19:45:13.408Z,7.03
2019-06-10T19:47:44.083Z,6.97
2019-06-10T19:50:12.237Z,8.93
2019-06-10T19:52:41.604Z,7.33
2019-06-10T19:55:09.593Z,6.00
2019-06-10T19:57:37.464Z,11.10
2019-06-10T20:00:11.672Z,9.87
2019-06-10T20:02:35.792Z,9.67
2019-06-10T20:05:04.114Z,6.40
2019-06-10T20:07:31.871Z,8.60
2019-06-10T20:09:59.544Z,6.93
2019-06-10T20:12:27.019Z,9.43
2019-06-10T20:14:56.817Z,6.83
2019-06-10T20:17:23.749Z,8.10
2019-06-10T20:19:51.290Z,9.37
2019-06-10T20:22:18.787Z,9.00
2019-06-10T20:24:46.899Z,8.03
2019-06-10T20:27:14.460Z,7.77
2019-06-10T20:29:43.054Z,6.70
2019-06-10T20:32:11.518Z,6.70
2019-06-10T20:34:39.358Z,9.80
2019-06-10T20:37:07.045Z,6.27
2019-06-10T20:39:34.552Z,5.60
2019-06-10T20:42:02.812Z,7.00
2019-06-10T20:44:32.478Z,9.43
2019-06-10T20:46:59.683Z,7.00
2019-06-10T20:49:27.132Z,9.40
2019-06-10T20:52:06.396Z,10.13
2019-06-10T20:54:23.999Z,6.67
2019-06-10T20:56:53.375Z,8.67
2019-06-10T20:59:25.486Z,10.83
2019-06-10T21:01:51.242Z,9.40
2019-06-10T21:04:19.667Z,10.90
2019-06-10T21:06:49.499Z,8.23
2019-06-10T21:09:17.366Z,11.03
2019-06-10T21:11:48.144Z,11.47
2019-06-10T21:14:14.667Z,11.70
2019-06-10T21:16:42.166Z,11.47
2019-06-10T21:19:09.868Z,8.67
2019-06-10T21:21:37.450Z,14.90
2019-06-10T21:24:04.881Z,14.33
2019-06-10T21:26:32.711Z,14.37
2019-06-10T21:29:00.139Z,10.93
2019-06-10T21:31:29.510Z,10.80
2019-06-10T21:33:56.822Z,13.90
2019-06-10T21:36:24.756Z,13.33
2019-06-10T21:38:55.756Z,10.60
2019-06-10T21:41:22.749Z,16.67
2019-06-10T21:43:58.445Z,13.93
2019-06-10T21:46:22.443Z,12.30
2019-06-10T21:48:49.333Z,12.13
2019-06-10T21:51:18.138Z,12.93
2019-06-10T21:53:46.576Z,9.27
2019-06-10T21:56:14.115Z,12.57
2019-06-10T21:58:42.320Z,9.73
2019-06-10T22:01:14.228Z,8.90
2019-06-10T22:03:40.065Z,6.97
2019-06-10T22:06:07.505Z,7.53
2019-06-10T22:08:35.048Z,5.57
2019-06-10T22:11:02.642Z,8.17
2019-06-10T22:13:32.722Z,7.70
2019-06-10T22:15:59.712Z,6.13
2019-06-10T22:18:27.483Z,4.70
2019-06-10T22:20:57.511Z,4.93
2019-06-10T22:23:24.083Z,4.90
2019-06-10T22:25:54.342Z,4.07
2019-06-10T22:28:22.198Z,6.37
2019-06-10T22:30:52.585Z,5.80
2019-06-10T22:33:19.217Z,4.33
2019-06-10T22:35:47.485Z,4.40
2019-06-10T22:38:14.941Z,3.77
2019-06-10T22:40:42.804Z,5.50
2019-06-10T22:43:12.774Z,4.30
2019-06-10T22:45:39.561Z,4.17
2019-06-10T22:48:06.926Z,3.63
2019-06-10T22:50:34.651Z,5.03
2019-06-10T22:53:03.798Z,4.67
2019-06-10T22:55:32.215Z,4.50
2019-06-10T22:58:02.414Z,4.67
2019-06-10T23:00:29.019Z,4.80
2019-06-10T23:02:57.686Z,6.00
2019-06-10T23:05:25.541Z,5.17
2019-06-10T23:07:54.524Z,7.27
2019-06-10T23:10:22.920Z,5.47
2019-06-10T23:12:53.408Z,7.30
2019-06-10T23:15:19.937Z,6.47
2019-06-10T23:17:48.890Z,5.50
2019-06-10T23:20:16.671Z,6.37
2019-06-10T23:22:44.365Z,8.77
2019-06-10T23:25:12.702Z,7.20
2019-06-10T23:27:43.770Z,6.57
2019-06-10T23:30:11.837Z,7.77
2019-06-10T23:32:42.125Z,9.23
2019-06-10T23:35:08.941Z,9.00
2019-06-10T23:37:36.924Z,11.33
2019-06-10T23:40:04.903Z,9.83
2019-06-10T23:42:32.347Z,11.63
2019-06-10T23:45:04.681Z,8.97
2019-06-10T23:47:29.432Z,9.17
2019-06-10T23:49:57.688Z,6.97
2019-06-10T23:52:25.403Z,8.67
2019-06-10T23:54:54.372Z,10.63
2019-06-10T23:57:22.321Z,7.63
2019-06-10T23:59:52.058Z,8.60
